sensor_id;sensor_type;location;lat;lon;timestamp;P1;durP1;ratioP1;P2;durP2;ratioP2
65896;SDS011;52677;50.898;10.854;2022-09-12T00:01:39;10.13;;;6.78;;
65896;SDS011;52677;50.898;10.854;2022-09-12T00:03:39;10.32;;;6.65;;
65896;SDS011;52677;50.898;10.854;2022-09-12T00:05:43;9.82;;;6.82;;
65896;SDS011;52677;50.898;10.854;2022-09-12T00:07:45;10.35;;;6.75;;
65896;SDS011;52677;50.898;10.854;2022-09-12T00:09:45;9.50;;;6.90;;
65896;SDS011;52677;50.898;10.854;2022-09-12T00:11:46;10.27;;;6.53;;
65896;SDS011;52677;50.898;10.854;2022-09-12T00:13:46;9.63;;;6.70;;
65896;SDS011;52677;50.898;10.854;2022-09-12T00:15:47;8.93;;;6.45;;
65896;SDS011;52677;50.898;10.854;2022-09-12T00:17:47;11.43;;;7.32;;
65896;SDS011;52677;50.898;10.854;2022-09-12T00:19:48;10.40;;;7.03;;
65896;SDS011;52677;50.898;10.854;2022-09-12T00:21:48;10.60;;;7.30;;
65896;SDS011;52677;50.898;10.854;2022-09-12T00:23:48;10.98;;;6.63;;
65896;SDS011;52677;50.898;10.854;2022-09-12T00:25:50;10.93;;;6.72;;
65896;SDS011;52677;50.898;10.854;2022-09-12T00:27:50;9.02;;;6.65;;
65896;SDS011;52677;50.898;10.854;2022-09-12T00:29:50;10.98;;;6.95;;
65896;SDS011;52677;50.898;10.854;2022-09-12T00:31:51;10.32;;;6.60;;
65896;SDS011;52677;50.898;10.854;2022-09-12T00:33:52;10.27;;;7.72;;
65896;SDS011;52677;50.898;10.854;2022-09-12T00:35:55;9.65;;;6.53;;
65896;SDS011;52677;50.898;10.854;2022-09-12T00:37:55;10.65;;;6.97;;
65896;SDS011;52677;50.898;10.854;2022-09-12T00:39:56;14.77;;;7.45;;
65896;SDS011;52677;50.898;10.854;2022-09-12T00:41:56;10.25;;;6.97;;
65896;SDS011;52677;50.898;10.854;2022-09-12T00:43:58;11.90;;;7.15;;
65896;SDS011;52677;50.898;10.854;2022-09-12T00:48:29;9.15;;;6.43;;
65896;SDS011;52677;50.898;10.854;2022-09-12T00:50:34;10.10;;;7.03;;
65896;SDS011;52677;50.898;10.854;2022-09-12T00:52:35;10.55;;;7.13;;
65896;SDS011;52677;50.898;10.854;2022-09-12T00:56:54;11.27;;;6.63;;
65896;SDS011;52677;50.898;10.854;2022-09-12T00:59:01;8.80;;;6.47;;
65896;SDS011;52677;50.898;10.854;2022-09-12T01:01:07;12.77;;;6.57;;
65896;SDS011;52677;50.898;10.854;2022-09-12T01:03:11;10.02;;;6.35;;
65896;SDS011;52677;50.898;10.854;2022-09-12T01:05:15;8.50;;;6.15;;
65896;SDS011;52677;50.898;10.854;2022-09-12T01:07:16;10.43;;;6.43;;
65896;SDS011;52677;50.898;10.854;2022-09-12T01:09:18;14.43;;;5.70;;
65896;SDS011;52677;50.898;10.854;2022-09-12T01:11:21;10.20;;;6.10;;
65896;SDS011;52677;50.898;10.854;2022-09-12T01:13:21;11.13;;;6.40;;
65896;SDS011;52677;50.898;10.854;2022-09-12T01:15:22;10.15;;;6.47;;
65896;SDS011;52677;50.898;10.854;2022-09-12T01:17:22;9.77;;;6.13;;
65896;SDS011;52677;50.898;10.854;2022-09-12T01:24:04;9.15;;;5.78;;
65896;SDS011;52677;50.898;10.854;2022-09-12T01:45:15;7.82;;;5.38;;
65896;SDS011;52677;50.898;10.854;2022-09-12T01:47:20;7.85;;;5.70;;
65896;SDS011;52677;50.898;10.854;2022-09-12T01:49:40;8.30;;;5.85;;
65896;SDS011;52677;50.898;10.854;2022-09-12T01:52:02;8.00;;;5.30;;
65896;SDS011;52677;50.898;10.854;2022-09-12T01:54:13;7.38;;;5.35;;
65896;SDS011;52677;50.898;10.854;2022-09-12T01:56:26;7.47;;;5.40;;
65896;SDS011;52677;50.898;10.854;2022-09-12T01:58:33;8.15;;;6.35;;
65896;SDS011;52677;50.898;10.854;2022-09-12T02:00:42;10.65;;;5.80;;
65896;SDS011;52677;50.898;10.854;2022-09-12T02:05:09;10.80;;;7.03;;
65896;SDS011;52677;50.898;10.854;2022-09-12T02:07:20;10.57;;;6.78;;
65896;SDS011;52677;50.898;10.854;2022-09-12T02:09:32;8.45;;;5.90;;
65896;SDS011;52677;50.898;10.854;2022-09-12T02:11:56;10.63;;;7.05;;
65896;SDS011;52677;50.898;10.854;2022-09-12T02:14:00;9.48;;;6.45;;
65896;SDS011;52677;50.898;10.854;2022-09-12T02:16:07;10.30;;;6.90;;
65896;SDS011;52677;50.898;10.854;2022-09-12T02:18:10;8.82;;;5.80;;
65896;SDS011;52677;50.898;10.854;2022-09-12T02:22:16;7.45;;;5.57;;
65896;SDS011;52677;50.898;10.854;2022-09-12T02:24:18;8.25;;;5.40;;
65896;SDS011;52677;50.898;10.854;2022-09-12T02:26:23;9.40;;;6.28;;
65896;SDS011;52677;50.898;10.854;2022-09-12T02:28:28;9.35;;;6.03;;
65896;SDS011;52677;50.898;10.854;2022-09-12T02:30:34;8.77;;;6.05;;
65896;SDS011;52677;50.898;10.854;2022-09-12T02:35:37;8.27;;;6.32;;
65896;SDS011;52677;50.898;10.854;2022-09-12T02:39:53;8.47;;;5.57;;
65896;SDS011;52677;50.898;10.854;2022-09-12T02:41:56;8.48;;;5.95;;
65896;SDS011;52677;50.898;10.854;2022-09-12T02:43:59;9.00;;;6.28;;
65896;SDS011;52677;50.898;10.854;2022-09-12T02:46:04;9.88;;;6.65;;
65896;SDS011;52677;50.898;10.854;2022-09-12T02:48:11;8.38;;;5.50;;
65896;SDS011;52677;50.898;10.854;2022-09-12T02:50:17;8.00;;;6.43;;
65896;SDS011;52677;50.898;10.854;2022-09-12T02:52:18;7.72;;;5.45;;
65896;SDS011;52677;50.898;10.854;2022-09-12T02:54:18;8.55;;;5.70;;
65896;SDS011;52677;50.898;10.854;2022-09-12T02:56:22;7.60;;;5.10;;
65896;SDS011;52677;50.898;10.854;2022-09-12T02:58:27;9.20;;;5.57;;
65896;SDS011;52677;50.898;10.854;2022-09-12T03:00:31;8.23;;;5.97;;
65896;SDS011;52677;50.898;10.854;2022-09-12T03:11:56;9.53;;;5.87;;
65896;SDS011;52677;50.898;10.854;2022-09-12T03:16:53;9.18;;;5.55;;
65896;SDS011;52677;50.898;10.854;2022-09-12T03:19:05;9.00;;;5.30;;
65896;SDS011;52677;50.898;10.854;2022-09-12T03:26:16;8.85;;;5.88;;
65896;SDS011;52677;50.898;10.854;2022-09-12T03:28:22;10.65;;;5.65;;
65896;SDS011;52677;50.898;10.854;2022-09-12T03:30:23;11.73;;;7.20;;
65896;SDS011;52677;50.898;10.854;2022-09-12T03:34:59;8.13;;;5.68;;
65896;SDS011;52677;50.898;10.854;2022-09-12T03:36:59;7.65;;;5.10;;
65896;SDS011;52677;50.898;10.854;2022-09-12T03:39:00;8.48;;;5.25;;
65896;SDS011;52677;50.898;10.854;2022-09-12T03:41:00;9.18;;;6.20;;
65896;SDS011;52677;50.898;10.854;2022-09-12T03:43:01;8.60;;;5.75;;
65896;SDS011;52677;50.898;10.854;2022-09-12T03:45:01;9.75;;;6.25;;
65896;SDS011;52677;50.898;10.854;2022-09-12T03:47:02;9.30;;;5.65;;
65896;SDS011;52677;50.898;10.854;2022-09-12T03:49:02;7.28;;;5.47;;
65896;SDS011;52677;50.898;10.854;2022-09-12T03:51:03;8.40;;;5.55;;
65896;SDS011;52677;50.898;10.854;2022-09-12T03:53:06;9.77;;;4.93;;
65896;SDS011;52677;50.898;10.854;2022-09-12T03:55:06;7.60;;;5.53;;
65896;SDS011;52677;50.898;10.854;2022-09-12T03:57:07;6.43;;;4.60;;
65896;SDS011;52677;50.898;10.854;2022-09-12T03:59:07;7.13;;;5.28;;
65896;SDS011;52677;50.898;10.854;2022-09-12T04:01:12;7.38;;;4.88;;
65896;SDS011;52677;50.898;10.854;2022-09-12T04:03:13;7.38;;;4.40;;
65896;SDS011;52677;50.898;10.854;2022-09-12T04:05:13;7.07;;;4.50;;
65896;SDS011;52677;50.898;10.854;2022-09-12T04:07:15;6.28;;;4.82;;
65896;SDS011;52677;50.898;10.854;2022-09-12T04:09:16;5.40;;;4.30;;
65896;SDS011;52677;50.898;10.854;2022-09-12T04:11:16;6.57;;;4.63;;
65896;SDS011;52677;50.898;10.854;2022-09-12T04:13:18;6.77;;;4.63;;
65896;SDS011;52677;50.898;10.854;2022-09-12T04:15:18;6.13;;;4.85;;
65896;SDS011;52677;50.898;10.854;2022-09-12T04:17:18;8.30;;;4.75;;
65896;SDS011;52677;50.898;10.854;2022-09-12T04:19:19;6.90;;;4.93;;
65896;SDS011;52677;50.898;10.854;2022-09-12T04:21:19;7.07;;;5.15;;
65896;SDS011;52677;50.898;10.854;2022-09-12T04:23:21;5.97;;;4.60;;
65896;SDS011;52677;50.898;10.854;2022-09-12T04:25:22;7.35;;;4.80;;
65896;SDS011;52677;50.898;10.854;2022-09-12T04:27:23;11.77;;;4.90;;
65896;SDS011;52677;50.898;10.854;2022-09-12T04:29:23;9.07;;;4.95;;
65896;SDS011;52677;50.898;10.854;2022-09-12T04:31:24;6.50;;;5.20;;
65896;SDS011;52677;50.898;10.854;2022-09-12T04:33:24;6.55;;;4.72;;
65896;SDS011;52677;50.898;10.854;2022-09-12T04:35:25;6.68;;;4.97;;
65896;SDS011;52677;50.898;10.854;2022-09-12T04:37:26;7.07;;;5.40;;
65896;SDS011;52677;50.898;10.854;2022-09-12T04:39:26;7.15;;;5.40;;
65896;SDS011;52677;50.898;10.854;2022-09-12T04:41:28;8.05;;;4.57;;
65896;SDS011;52677;50.898;10.854;2022-09-12T04:43:39;8.05;;;5.10;;
65896;SDS011;52677;50.898;10.854;2022-09-12T04:45:40;8.13;;;5.22;;
65896;SDS011;52677;50.898;10.854;2022-09-12T04:47:40;8.23;;;5.40;;
65896;SDS011;52677;50.898;10.854;2022-09-12T04:49:41;8.38;;;5.20;;
65896;SDS011;52677;50.898;10.854;2022-09-12T04:51:42;10.18;;;5.80;;
65896;SDS011;52677;50.898;10.854;2022-09-12T04:53:46;8.10;;;5.55;;
65896;SDS011;52677;50.898;10.854;2022-09-12T04:55:48;6.22;;;4.75;;
65896;SDS011;52677;50.898;10.854;2022-09-12T04:57:48;8.25;;;5.18;;
65896;SDS011;52677;50.898;10.854;2022-09-12T04:59:48;7.50;;;5.28;;
65896;SDS011;52677;50.898;10.854;2022-09-12T05:01:49;7.00;;;5.28;;
65896;SDS011;52677;50.898;10.854;2022-09-12T05:03:49;8.25;;;5.38;;
65896;SDS011;52677;50.898;10.854;2022-09-12T05:05:50;9.65;;;6.05;;
65896;SDS011;52677;50.898;10.854;2022-09-12T05:07:50;7.47;;;4.40;;
65896;SDS011;52677;50.898;10.854;2022-09-12T05:09:51;8.00;;;4.78;;
65896;SDS011;52677;50.898;10.854;2022-09-12T05:11:51;7.70;;;5.47;;
65896;SDS011;52677;50.898;10.854;2022-09-12T05:13:51;8.43;;;5.03;;
65896;SDS011;52677;50.898;10.854;2022-09-12T05:15:53;10.23;;;5.07;;
65896;SDS011;52677;50.898;10.854;2022-09-12T05:17:54;6.35;;;5.25;;
65896;SDS011;52677;50.898;10.854;2022-09-12T05:19:54;8.35;;;4.88;;
65896;SDS011;52677;50.898;10.854;2022-09-12T05:21:54;8.43;;;5.22;;
65896;SDS011;52677;50.898;10.854;2022-09-12T05:23:55;7.40;;;5.25;;
65896;SDS011;52677;50.898;10.854;2022-09-12T05:25:59;5.72;;;4.40;;
65896;SDS011;52677;50.898;10.854;2022-09-12T05:28:00;6.35;;;4.70;;
65896;SDS011;52677;50.898;10.854;2022-09-12T05:30:00;7.00;;;4.53;;
65896;SDS011;52677;50.898;10.854;2022-09-12T05:32:01;5.90;;;4.47;;
65896;SDS011;52677;50.898;10.854;2022-09-12T05:34:02;7.63;;;4.32;;
65896;SDS011;52677;50.898;10.854;2022-09-12T05:36:04;5.53;;;4.00;;
65896;SDS011;52677;50.898;10.854;2022-09-12T05:38:06;5.93;;;4.75;;
65896;SDS011;52677;50.898;10.854;2022-09-12T05:40:07;6.28;;;4.57;;
65896;SDS011;52677;50.898;10.854;2022-09-12T05:42:08;6.90;;;5.10;;
65896;SDS011;52677;50.898;10.854;2022-09-12T05:44:11;6.45;;;4.60;;
65896;SDS011;52677;50.898;10.854;2022-09-12T05:46:14;6.95;;;4.82;;
65896;SDS011;52677;50.898;10.854;2022-09-12T05:48:16;6.25;;;5.15;;
65896;SDS011;52677;50.898;10.854;2022-09-12T05:50:16;6.60;;;4.93;;
65896;SDS011;52677;50.898;10.854;2022-09-12T05:52:16;9.45;;;6.32;;
65896;SDS011;52677;50.898;10.854;2022-09-12T05:54:17;16.08;;;9.45;;
65896;SDS011;52677;50.898;10.854;2022-09-12T05:56:20;12.85;;;8.50;;
65896;SDS011;52677;50.898;10.854;2022-09-12T05:58:22;14.20;;;9.73;;
65896;SDS011;52677;50.898;10.854;2022-09-12T06:00:22;17.27;;;10.02;;
65896;SDS011;52677;50.898;10.854;2022-09-12T06:02:23;19.50;;;12.50;;
65896;SDS011;52677;50.898;10.854;2022-09-12T06:04:23;17.65;;;13.38;;
65896;SDS011;52677;50.898;10.854;2022-09-12T06:06:24;16.05;;;10.80;;
65896;SDS011;52677;50.898;10.854;2022-09-12T06:08:24;15.40;;;9.20;;
65896;SDS011;52677;50.898;10.854;2022-09-12T06:10:25;10.00;;;7.72;;
65896;SDS011;52677;50.898;10.854;2022-09-12T06:12:27;10.52;;;6.95;;
65896;SDS011;52677;50.898;10.854;2022-09-12T06:14:28;8.77;;;7.07;;
65896;SDS011;52677;50.898;10.854;2022-09-12T06:16:29;9.25;;;7.95;;
65896;SDS011;52677;50.898;10.854;2022-09-12T06:18:31;10.00;;;6.88;;
65896;SDS011;52677;50.898;10.854;2022-09-12T06:20:31;10.07;;;6.40;;
65896;SDS011;52677;50.898;10.854;2022-09-12T06:22:32;11.32;;;6.18;;
65896;SDS011;52677;50.898;10.854;2022-09-12T06:24:33;9.98;;;7.13;;
65896;SDS011;52677;50.898;10.854;2022-09-12T06:26:33;13.75;;;9.57;;
65896;SDS011;52677;50.898;10.854;2022-09-12T06:28:35;19.35;;;10.82;;
65896;SDS011;52677;50.898;10.854;2022-09-12T06:30:37;16.75;;;9.45;;
65896;SDS011;52677;50.898;10.854;2022-09-12T06:32:37;16.25;;;9.43;;
65896;SDS011;52677;50.898;10.854;2022-09-12T06:34:38;18.77;;;10.75;;
65896;SDS011;52677;50.898;10.854;2022-09-12T06:36:39;13.80;;;8.30;;
65896;SDS011;52677;50.898;10.854;2022-09-12T06:38:42;15.02;;;9.65;;
65896;SDS011;52677;50.898;10.854;2022-09-12T06:40:45;12.30;;;6.82;;
65896;SDS011;52677;50.898;10.854;2022-09-12T06:42:46;9.40;;;6.60;;
65896;SDS011;52677;50.898;10.854;2022-09-12T06:44:46;10.13;;;6.60;;
65896;SDS011;52677;50.898;10.854;2022-09-12T06:46:47;12.30;;;7.18;;
65896;SDS011;52677;50.898;10.854;2022-09-12T06:48:48;12.35;;;6.75;;
65896;SDS011;52677;50.898;10.854;2022-09-12T06:51:03;12.00;;;6.28;;
65896;SDS011;52677;50.898;10.854;2022-09-12T06:53:06;11.68;;;6.88;;
65896;SDS011;52677;50.898;10.854;2022-09-12T06:55:07;9.98;;;6.72;;
65896;SDS011;52677;50.898;10.854;2022-09-12T06:57:07;12.15;;;7.25;;
65896;SDS011;52677;50.898;10.854;2022-09-12T06:59:07;12.25;;;7.03;;
65896;SDS011;52677;50.898;10.854;2022-09-12T07:03:21;11.50;;;7.10;;
65896;SDS011;52677;50.898;10.854;2022-09-12T07:05:22;12.20;;;6.88;;
65896;SDS011;52677;50.898;10.854;2022-09-12T07:07:22;9.90;;;6.35;;
65896;SDS011;52677;50.898;10.854;2022-09-12T07:09:23;11.90;;;7.82;;
65896;SDS011;52677;50.898;10.854;2022-09-12T07:11:24;12.38;;;7.82;;
65896;SDS011;52677;50.898;10.854;2022-09-12T07:13:26;15.95;;;8.57;;
65896;SDS011;52677;50.898;10.854;2022-09-12T07:15:26;13.63;;;8.50;;
65896;SDS011;52677;50.898;10.854;2022-09-12T07:17:28;15.00;;;9.07;;
65896;SDS011;52677;50.898;10.854;2022-09-12T07:19:28;12.07;;;8.02;;
65896;SDS011;52677;50.898;10.854;2022-09-12T07:21:29;12.77;;;7.88;;
65896;SDS011;52677;50.898;10.854;2022-09-12T07:23:30;10.20;;;6.88;;
65896;SDS011;52677;50.898;10.854;2022-09-12T07:25:30;9.25;;;6.65;;
65896;SDS011;52677;50.898;10.854;2022-09-12T07:27:30;9.00;;;6.88;;
65896;SDS011;52677;50.898;10.854;2022-09-12T07:29:31;10.93;;;7.30;;
65896;SDS011;52677;50.898;10.854;2022-09-12T07:31:31;14.15;;;8.02;;
65896;SDS011;52677;50.898;10.854;2022-09-12T07:33:32;11.95;;;7.90;;
65896;SDS011;52677;50.898;10.854;2022-09-12T07:35:32;12.57;;;9.05;;
65896;SDS011;52677;50.898;10.854;2022-09-12T07:37:33;14.20;;;8.60;;
65896;SDS011;52677;50.898;10.854;2022-09-12T07:39:33;11.57;;;8.30;;
65896;SDS011;52677;50.898;10.854;2022-09-12T07:41:33;10.18;;;7.63;;
65896;SDS011;52677;50.898;10.854;2022-09-12T07:43:34;14.20;;;7.97;;
65896;SDS011;52677;50.898;10.854;2022-09-12T07:45:34;10.02;;;7.22;;
65896;SDS011;52677;50.898;10.854;2022-09-12T07:47:34;15.27;;;9.45;;
65896;SDS011;52677;50.898;10.854;2022-09-12T07:49:35;10.93;;;8.10;;
65896;SDS011;52677;50.898;10.854;2022-09-12T07:51:35;12.20;;;8.27;;
65896;SDS011;52677;50.898;10.854;2022-09-12T07:53:38;13.30;;;8.43;;
65896;SDS011;52677;50.898;10.854;2022-09-12T07:55:39;12.60;;;8.15;;
65896;SDS011;52677;50.898;10.854;2022-09-12T07:57:39;14.63;;;8.93;;
65896;SDS011;52677;50.898;10.854;2022-09-12T07:59:40;12.18;;;8.40;;
65896;SDS011;52677;50.898;10.854;2022-09-12T08:01:41;14.57;;;9.32;;
65896;SDS011;52677;50.898;10.854;2022-09-12T08:03:42;18.50;;;10.63;;
65896;SDS011;52677;50.898;10.854;2022-09-12T08:05:46;13.95;;;9.70;;
65896;SDS011;52677;50.898;10.854;2022-09-12T08:07:46;12.90;;;8.30;;
65896;SDS011;52677;50.898;10.854;2022-09-12T08:09:46;12.05;;;8.40;;
65896;SDS011;52677;50.898;10.854;2022-09-12T08:11:47;16.00;;;9.88;;
65896;SDS011;52677;50.898;10.854;2022-09-12T08:13:47;14.20;;;10.23;;
65896;SDS011;52677;50.898;10.854;2022-09-12T08:15:49;15.23;;;9.43;;
65896;SDS011;52677;50.898;10.854;2022-09-12T08:17:49;14.18;;;9.20;;
65896;SDS011;52677;50.898;10.854;2022-09-12T08:19:50;14.90;;;10.18;;
65896;SDS011;52677;50.898;10.854;2022-09-12T08:21:51;13.00;;;9.30;;
65896;SDS011;52677;50.898;10.854;2022-09-12T08:23:52;16.77;;;9.30;;
65896;SDS011;52677;50.898;10.854;2022-09-12T08:27:58;14.65;;;9.30;;
65896;SDS011;52677;50.898;10.854;2022-09-12T08:30:00;13.47;;;8.80;;
65896;SDS011;52677;50.898;10.854;2022-09-12T08:32:01;14.05;;;9.68;;
65896;SDS011;52677;50.898;10.854;2022-09-12T08:34:03;17.38;;;10.10;;
65896;SDS011;52677;50.898;10.854;2022-09-12T08:36:05;15.90;;;10.18;;
65896;SDS011;52677;50.898;10.854;2022-09-12T08:38:07;16.27;;;9.20;;
65896;SDS011;52677;50.898;10.854;2022-09-12T08:40:08;21.40;;;10.27;;
65896;SDS011;52677;50.898;10.854;2022-09-12T08:42:17;12.68;;;8.50;;
65896;SDS011;52677;50.898;10.854;2022-09-12T08:46:42;15.48;;;9.45;;
65896;SDS011;52677;50.898;10.854;2022-09-12T08:48:59;15.15;;;8.48;;
65896;SDS011;52677;50.898;10.854;2022-09-12T08:51:02;17.02;;;9.45;;
65896;SDS011;52677;50.898;10.854;2022-09-12T08:53:09;10.07;;;8.30;;
65896;SDS011;52677;50.898;10.854;2022-09-12T08:55:34;13.93;;;9.07;;
65896;SDS011;52677;50.898;10.854;2022-09-12T08:57:45;13.10;;;8.40;;
65896;SDS011;52677;50.898;10.854;2022-09-12T08:59:45;12.10;;;8.32;;
65896;SDS011;52677;50.898;10.854;2022-09-12T09:01:47;11.88;;;8.30;;
65896;SDS011;52677;50.898;10.854;2022-09-12T09:13:38;11.10;;;6.60;;
65896;SDS011;52677;50.898;10.854;2022-09-12T09:16:15;10.23;;;6.07;;
65896;SDS011;52677;50.898;10.854;2022-09-12T09:18:23;9.30;;;6.18;;
65896;SDS011;52677;50.898;10.854;2022-09-12T09:23:28;8.13;;;5.38;;
65896;SDS011;52677;50.898;10.854;2022-09-12T09:28:01;8.73;;;5.50;;
65896;SDS011;52677;50.898;10.854;2022-09-12T09:30:19;9.23;;;5.78;;
65896;SDS011;52677;50.898;10.854;2022-09-12T09:32:27;8.60;;;5.78;;
65896;SDS011;52677;50.898;10.854;2022-09-12T09:34:37;9.95;;;5.43;;
65896;SDS011;52677;50.898;10.854;2022-09-12T09:38:49;7.25;;;4.53;;
65896;SDS011;52677;50.898;10.854;2022-09-12T09:43:29;5.85;;;3.67;;
65896;SDS011;52677;50.898;10.854;2022-09-12T09:45:30;6.20;;;3.92;;
65896;SDS011;52677;50.898;10.854;2022-09-12T09:47:30;5.25;;;3.20;;
65896;SDS011;52677;50.898;10.854;2022-09-12T09:49:32;4.18;;;3.22;;
65896;SDS011;52677;50.898;10.854;2022-09-12T09:56:02;6.78;;;4.40;;
65896;SDS011;52677;50.898;10.854;2022-09-12T09:58:08;7.75;;;4.15;;
65896;SDS011;52677;50.898;10.854;2022-09-12T10:00:31;5.75;;;4.20;;
65896;SDS011;52677;50.898;10.854;2022-09-12T10:02:31;12.05;;;4.78;;
65896;SDS011;52677;50.898;10.854;2022-09-12T10:04:35;4.97;;;3.10;;
65896;SDS011;52677;50.898;10.854;2022-09-12T10:06:39;5.50;;;3.83;;
65896;SDS011;52677;50.898;10.854;2022-09-12T10:08:40;5.43;;;3.90;;
65896;SDS011;52677;50.898;10.854;2022-09-12T10:10:51;9.60;;;3.65;;
65896;SDS011;52677;50.898;10.854;2022-09-12T10:13:05;4.53;;;3.30;;
65896;SDS011;52677;50.898;10.854;2022-09-12T10:15:24;5.93;;;3.50;;
65896;SDS011;52677;50.898;10.854;2022-09-12T10:17:27;6.55;;;3.78;;
65896;SDS011;52677;50.898;10.854;2022-09-12T10:19:33;5.05;;;3.53;;
65896;SDS011;52677;50.898;10.854;2022-09-12T10:21:46;4.18;;;3.22;;
65896;SDS011;52677;50.898;10.854;2022-09-12T10:23:52;10.60;;;3.75;;
65896;SDS011;52677;50.898;10.854;2022-09-12T10:26:03;6.95;;;4.13;;
65896;SDS011;52677;50.898;10.854;2022-09-12T10:28:11;5.25;;;3.45;;
65896;SDS011;52677;50.898;10.854;2022-09-12T10:30:21;5.80;;;3.35;;
65896;SDS011;52677;50.898;10.854;2022-09-12T10:32:28;5.15;;;3.30;;
65896;SDS011;52677;50.898;10.854;2022-09-12T10:34:34;4.05;;;2.80;;
65896;SDS011;52677;50.898;10.854;2022-09-12T10:36:37;3.50;;;2.67;;
65896;SDS011;52677;50.898;10.854;2022-09-12T10:38:39;6.47;;;2.45;;
65896;SDS011;52677;50.898;10.854;2022-09-12T10:40:59;4.57;;;2.63;;
65896;SDS011;52677;50.898;10.854;2022-09-12T10:43:02;5.82;;;3.00;;
65896;SDS011;52677;50.898;10.854;2022-09-12T10:45:36;4.78;;;2.80;;
65896;SDS011;52677;50.898;10.854;2022-09-12T10:47:36;3.67;;;2.90;;
65896;SDS011;52677;50.898;10.854;2022-09-12T10:49:37;4.15;;;2.75;;
65896;SDS011;52677;50.898;10.854;2022-09-12T10:51:39;5.15;;;2.60;;
65896;SDS011;52677;50.898;10.854;2022-09-12T10:53:40;2.97;;;2.63;;
65896;SDS011;52677;50.898;10.854;2022-09-12T10:58:08;3.88;;;2.53;;
65896;SDS011;52677;50.898;10.854;2022-09-12T11:00:21;7.40;;;2.80;;
65896;SDS011;52677;50.898;10.854;2022-09-12T11:02:27;4.43;;;2.40;;
65896;SDS011;52677;50.898;10.854;2022-09-12T11:13:20;3.40;;;2.72;;
65896;SDS011;52677;50.898;10.854;2022-09-12T11:17:41;3.13;;;2.30;;
65896;SDS011;52677;50.898;10.854;2022-09-12T11:22:34;3.05;;;2.30;;
65896;SDS011;52677;50.898;10.854;2022-09-12T11:29:49;3.50;;;2.33;;
65896;SDS011;52677;50.898;10.854;2022-09-12T11:38:44;2.60;;;2.20;;
65896;SDS011;52677;50.898;10.854;2022-09-12T11:47:43;3.67;;;2.15;;
65896;SDS011;52677;50.898;10.854;2022-09-12T11:49:49;3.30;;;2.40;;
65896;SDS011;52677;50.898;10.854;2022-09-12T11:54:40;2.53;;;1.92;;
65896;SDS011;52677;50.898;10.854;2022-09-12T11:56:52;2.35;;;2.15;;
65896;SDS011;52677;50.898;10.854;2022-09-12T11:59:02;3.33;;;2.50;;
65896;SDS011;52677;50.898;10.854;2022-09-12T12:03:44;2.70;;;2.40;;
65896;SDS011;52677;50.898;10.854;2022-09-12T12:05:50;4.38;;;2.33;;
65896;SDS011;52677;50.898;10.854;2022-09-12T12:07:58;3.63;;;1.90;;
65896;SDS011;52677;50.898;10.854;2022-09-12T12:10:00;3.30;;;1.92;;
65896;SDS011;52677;50.898;10.854;2022-09-12T12:12:04;3.88;;;2.30;;
65896;SDS011;52677;50.898;10.854;2022-09-12T12:14:18;2.20;;;2.00;;
65896;SDS011;52677;50.898;10.854;2022-09-12T12:16:27;4.00;;;2.50;;
65896;SDS011;52677;50.898;10.854;2022-09-12T12:18:31;4.55;;;2.28;;
65896;SDS011;52677;50.898;10.854;2022-09-12T12:20:35;4.85;;;2.35;;
65896;SDS011;52677;50.898;10.854;2022-09-12T12:22:36;2.63;;;2.10;;
65896;SDS011;52677;50.898;10.854;2022-09-12T12:24:51;5.60;;;2.38;;
65896;SDS011;52677;50.898;10.854;2022-09-12T12:27:03;2.42;;;1.92;;
65896;SDS011;52677;50.898;10.854;2022-09-12T12:31:22;8.70;;;2.25;;
65896;SDS011;52677;50.898;10.854;2022-09-12T12:35:36;3.97;;;1.77;;
65896;SDS011;52677;50.898;10.854;2022-09-12T12:41:43;2.80;;;1.90;;
65896;SDS011;52677;50.898;10.854;2022-09-12T12:43:50;2.97;;;2.00;;
65896;SDS011;52677;50.898;10.854;2022-09-12T12:46:01;3.50;;;2.05;;
65896;SDS011;52677;50.898;10.854;2022-09-12T12:48:08;2.38;;;2.05;;
65896;SDS011;52677;50.898;10.854;2022-09-12T12:52:18;2.60;;;1.92;;
65896;SDS011;52677;50.898;10.854;2022-09-12T12:56:41;3.28;;;2.22;;
65896;SDS011;52677;50.898;10.854;2022-09-12T12:58:42;2.47;;;1.90;;
65896;SDS011;52677;50.898;10.854;2022-09-12T13:00:43;2.58;;;1.90;;
65896;SDS011;52677;50.898;10.854;2022-09-12T13:02:49;2.83;;;1.90;;
65896;SDS011;52677;50.898;10.854;2022-09-12T13:04:56;3.20;;;2.00;;
65896;SDS011;52677;50.898;10.854;2022-09-12T13:07:02;2.85;;;2.10;;
65896;SDS011;52677;50.898;10.854;2022-09-12T13:11:14;3.70;;;2.03;;
65896;SDS011;52677;50.898;10.854;2022-09-12T13:17:40;2.33;;;1.83;;
65896;SDS011;52677;50.898;10.854;2022-09-12T13:19:43;2.20;;;2.00;;
65896;SDS011;52677;50.898;10.854;2022-09-12T13:21:55;3.28;;;2.10;;
65896;SDS011;52677;50.898;10.854;2022-09-12T13:24:02;3.30;;;2.08;;
65896;SDS011;52677;50.898;10.854;2022-09-12T13:26:11;2.90;;;1.80;;
65896;SDS011;52677;50.898;10.854;2022-09-12T13:28:19;2.75;;;1.88;;
65896;SDS011;52677;50.898;10.854;2022-09-12T13:30:20;2.13;;;1.88;;
65896;SDS011;52677;50.898;10.854;2022-09-12T13:32:20;4.20;;;1.90;;
65896;SDS011;52677;50.898;10.854;2022-09-12T13:34:22;1.98;;;1.73;;
65896;SDS011;52677;50.898;10.854;2022-09-12T13:38:50;2.05;;;1.70;;
65896;SDS011;52677;50.898;10.854;2022-09-12T13:43:15;2.70;;;1.90;;
65896;SDS011;52677;50.898;10.854;2022-09-12T13:45:21;3.55;;;1.95;;
65896;SDS011;52677;50.898;10.854;2022-09-12T13:49:31;3.92;;;2.10;;
65896;SDS011;52677;50.898;10.854;2022-09-12T13:51:34;2.83;;;2.25;;
65896;SDS011;52677;50.898;10.854;2022-09-12T13:53:42;4.93;;;2.22;;
65896;SDS011;52677;50.898;10.854;2022-09-12T13:55:46;3.70;;;1.90;;
65896;SDS011;52677;50.898;10.854;2022-09-12T13:57:56;2.80;;;2.00;;
65896;SDS011;52677;50.898;10.854;2022-09-12T14:00:18;2.78;;;2.20;;
65896;SDS011;52677;50.898;10.854;2022-09-12T14:02:20;2.67;;;1.85;;
65896;SDS011;52677;50.898;10.854;2022-09-12T14:04:23;2.10;;;1.70;;
65896;SDS011;52677;50.898;10.854;2022-09-12T14:06:47;4.75;;;2.20;;
65896;SDS011;52677;50.898;10.854;2022-09-12T14:08:49;3.38;;;1.92;;
65896;SDS011;52677;50.898;10.854;2022-09-12T14:10:50;3.70;;;2.03;;
65896;SDS011;52677;50.898;10.854;2022-09-12T14:12:51;2.45;;;1.83;;
65896;SDS011;52677;50.898;10.854;2022-09-12T14:14:51;3.05;;;1.73;;
65896;SDS011;52677;50.898;10.854;2022-09-12T14:16:52;2.33;;;1.83;;
65896;SDS011;52677;50.898;10.854;2022-09-12T14:18:53;3.53;;;1.90;;
65896;SDS011;52677;50.898;10.854;2022-09-12T14:20:55;3.75;;;1.90;;
65896;SDS011;52677;50.898;10.854;2022-09-12T14:23:00;2.83;;;1.80;;
65896;SDS011;52677;50.898;10.854;2022-09-12T14:25:03;3.33;;;1.85;;
65896;SDS011;52677;50.898;10.854;2022-09-12T14:27:04;3.78;;;1.75;;
65896;SDS011;52677;50.898;10.854;2022-09-12T14:29:05;5.15;;;1.80;;
65896;SDS011;52677;50.898;10.854;2022-09-12T14:31:19;2.13;;;1.80;;
65896;SDS011;52677;50.898;10.854;2022-09-12T14:33:20;2.30;;;1.92;;
65896;SDS011;52677;50.898;10.854;2022-09-12T14:35:20;2.60;;;1.77;;
65896;SDS011;52677;50.898;10.854;2022-09-12T14:37:21;2.53;;;1.85;;
65896;SDS011;52677;50.898;10.854;2022-09-12T14:39:36;4.18;;;2.28;;
65896;SDS011;52677;50.898;10.854;2022-09-12T14:41:40;2.55;;;2.08;;
65896;SDS011;52677;50.898;10.854;2022-09-12T14:43:43;3.00;;;1.63;;
65896;SDS011;52677;50.898;10.854;2022-09-12T14:45:56;2.85;;;1.80;;